createdAt,value
2019-05-26T00:00:39.537Z,0.00
2019-05-26T00:01:39.503Z,0.00
2019-05-26T00:02:39.477Z,0.00
2019-05-26T00:03:39.433Z,0.00
2019-05-26T00:04:39.414Z,0.00
2019-05-26T00:05:39.381Z,0.00
2019-05-26T00:06:39.347Z,0.00
2019-05-26T00:07:39.312Z,0.00
2019-05-26T00:08:39.286Z,0.00
2019-05-26T00:09:39.248Z,0.00
2019-05-26T00:10:39.218Z,0.00
2019-05-26T00:11:39.193Z,0.00
2019-05-26T00:12:39.152Z,0.00
2019-05-26T00:13:39.126Z,0.00
2019-05-26T00:14:39.086Z,0.00
2019-05-26T00:15:39.062Z,0.00
2019-05-26T00:16:39.018Z,0.00
2019-05-26T00:17:38.988Z,0.00
2019-05-26T00:18:38.958Z,0.00
2019-05-26T00:19:38.968Z,0.00
2019-05-26T00:20:38.889Z,0.00
2019-05-26T00:21:38.859Z,0.00
2019-05-26T00:22:38.846Z,0.00
2019-05-26T00:23:38.793Z,0.00
2019-05-26T00:24:38.764Z,0.00
2019-05-26T00:25:38.738Z,0.00
2019-05-26T00:26:38.716Z,0.00
2019-05-26T00:27:38.673Z,0.00
2019-05-26T00:28:38.643Z,0.00
2019-05-26T00:29:38.604Z,0.00
2019-05-26T00:30:38.588Z,0.00
2019-05-26T00:31:38.532Z,0.00
2019-05-26T00:32:38.503Z,0.00
2019-05-26T00:33:38.474Z,0.00
2019-05-26T00:34:38.438Z,0.00
2019-05-26T00:35:38.428Z,0.00
2019-05-26T00:36:38.405Z,0.00
2019-05-26T00:37:49.206Z,0.00
2019-05-26T00:38:38.318Z,0.00
2019-05-26T00:39:38.268Z,0.00
2019-05-26T00:40:38.243Z,0.00
2019-05-26T00:41:38.218Z,0.00
2019-05-26T00:42:38.186Z,0.00
2019-05-26T00:43:38.135Z,0.00
2019-05-26T00:44:38.118Z,0.00
2019-05-26T00:45:38.080Z,0.00
2019-05-26T00:46:38.063Z,0.00
2019-05-26T00:47:38.064Z,0.00
2019-05-26T00:48:37.984Z,0.00
2019-05-26T00:49:37.950Z,0.00
2019-05-26T00:50:37.933Z,0.00
2019-05-26T00:51:37.890Z,0.00
2019-05-26T00:52:37.858Z,0.00
2019-05-26T00:53:37.848Z,0.00
2019-05-26T00:54:37.788Z,0.00
2019-05-26T00:55:37.784Z,0.00
2019-05-26T00:56:37.743Z,0.00
2019-05-26T00:57:37.692Z,0.00
2019-05-26T00:58:37.690Z,0.00
2019-05-26T00:59:37.626Z,0.00
2019-05-26T01:00:37.594Z,0.00
2019-05-26T01:01:37.579Z,0.00
2019-05-26T01:02:37.535Z,0.00
2019-05-26T01:03:37.491Z,0.00
2019-05-26T01:04:37.471Z,0.00
2019-05-26T01:05:37.430Z,0.00
2019-05-26T01:06:37.405Z,0.00
2019-05-26T01:07:37.400Z,0.00
2019-05-26T01:08:37.341Z,0.00
2019-05-26T01:09:37.305Z,0.00
2019-05-26T01:10:37.269Z,0.00
2019-05-26T01:11:37.234Z,0.00
2019-05-26T01:12:37.202Z,0.00
2019-05-26T01:13:37.176Z,0.00
2019-05-26T01:14:37.161Z,0.00
2019-05-26T01:15:37.116Z,0.00
2019-05-26T01:16:37.090Z,0.00
2019-05-26T01:17:37.049Z,0.00
2019-05-26T01:18:37.021Z,0.00
2019-05-26T01:19:37.029Z,0.00
2019-05-26T01:20:36.947Z,0.00
2019-05-26T01:21:36.918Z,0.00
2019-05-26T01:22:36.896Z,0.00
2019-05-26T01:23:36.842Z,0.00
2019-05-26T01:24:36.821Z,0.00
2019-05-26T01:25:36.857Z,0.00
2019-05-26T01:26:36.761Z,0.00
2019-05-26T01:27:36.728Z,0.00
2019-05-26T01:28:36.691Z,0.00
2019-05-26T01:29:36.706Z,0.00
2019-05-26T01:30:36.638Z,0.00
2019-05-26T01:31:36.588Z,0.00
2019-05-26T01:32:36.588Z,0.00
2019-05-26T01:33:36.525Z,0.00
2019-05-26T01:34:36.487Z,0.00
2019-05-26T01:35:36.455Z,0.00
2019-05-26T01:36:36.431Z,0.00
2019-05-26T01:37:36.402Z,0.00
2019-05-26T01:38:36.351Z,0.00
2019-05-26T01:39:36.331Z,0.00
2019-05-26T01:40:36.305Z,0.00
2019-05-26T01:41:36.262Z,0.00
2019-05-26T01:42:36.258Z,0.00
2019-05-26T01:43:36.193Z,0.00
2019-05-26T01:44:36.159Z,0.00
2019-05-26T01:45:36.133Z,0.00
2019-05-26T01:46:38.389Z,0.00
2019-05-26T01:47:37.962Z,0.00
2019-05-26T01:48:40.024Z,0.00
2019-05-26T01:49:59.143Z,0.00
2019-05-26T01:50:37.757Z,0.00
2019-05-26T01:51:37.742Z,0.00
2019-05-26T01:52:46.899Z,0.00
2019-05-26T01:53:40.181Z,0.00
2019-05-26T01:54:42.724Z,0.00
2019-05-26T01:55:36.827Z,0.00
2019-05-26T01:56:36.918Z,0.00
2019-05-26T01:57:38.761Z,0.00
2019-05-26T01:58:39.059Z,0.00
2019-05-26T01:59:37.119Z,0.00
2019-05-26T02:00:39.332Z,0.00
2019-05-26T02:01:39.554Z,0.00
2019-05-26T02:02:39.775Z,0.00
2019-05-26T02:03:39.429Z,0.00
2019-05-26T02:04:40.667Z,0.00
2019-05-26T02:05:37.245Z,0.00
2019-05-26T02:06:36.286Z,0.00
2019-05-26T02:07:37.287Z,0.00
2019-05-26T02:08:39.263Z,0.00
2019-05-26T02:09:37.398Z,0.00
2019-05-26T02:10:36.278Z,0.00
2019-05-26T02:11:37.324Z,0.00
2019-05-26T02:12:37.010Z,0.00
2019-05-26T02:13:40.085Z,0.00
2019-05-26T02:14:37.344Z,0.00
2019-05-26T02:15:37.936Z,0.00
2019-05-26T02:16:37.172Z,0.00
2019-05-26T02:17:36.536Z,0.00
2019-05-26T02:18:36.985Z,0.00
2019-05-26T02:19:38.079Z,0.00
2019-05-26T02:20:38.901Z,0.00
2019-05-26T02:21:36.567Z,0.00
2019-05-26T02:22:36.279Z,0.00
2019-05-26T02:23:37.309Z,0.00
2019-05-26T02:24:36.875Z,0.00
2019-05-26T02:25:36.709Z,0.00
2019-05-26T02:26:39.135Z,0.00
2019-05-26T02:27:35.659Z,0.00
2019-05-26T02:28:35.449Z,0.00
2019-05-26T02:29:36.190Z,0.00
2019-05-26T02:30:37.911Z,0.00
2019-05-26T02:31:37.451Z,0.00
2019-05-26T02:32:38.081Z,0.00
2019-05-26T02:33:35.950Z,0.00
2019-05-26T02:34:36.649Z,0.00
2019-05-26T02:37:15.276Z,0.00
2019-05-26T02:38:15.024Z,0.00
2019-05-26T02:39:16.210Z,0.00
2019-05-26T02:40:16.779Z,0.00
2019-05-26T02:41:14.947Z,0.00
2019-05-26T02:42:14.862Z,0.00
2019-05-26T02:43:14.848Z,0.00
2019-05-26T02:44:14.792Z,0.00
2019-05-26T02:45:14.774Z,0.00
2019-05-26T02:46:14.744Z,0.00
2019-05-26T02:47:14.736Z,0.00
2019-05-26T02:48:14.683Z,0.00
2019-05-26T02:49:14.634Z,0.00
2019-05-26T02:50:14.610Z,0.00
2019-05-26T02:51:14.571Z,0.00
2019-05-26T02:52:14.527Z,0.00
2019-05-26T02:53:14.503Z,0.00
2019-05-26T02:54:14.470Z,0.00
2019-05-26T02:55:14.431Z,0.00
2019-05-26T02:56:14.427Z,0.00
2019-05-26T02:57:14.381Z,0.00
2019-05-26T02:58:14.336Z,0.00
2019-05-26T02:59:14.326Z,0.00
2019-05-26T03:00:14.268Z,0.00
2019-05-26T03:01:14.248Z,0.00
2019-05-26T03:02:14.206Z,0.00
2019-05-26T03:03:14.171Z,0.00
2019-05-26T03:04:14.172Z,0.00
2019-05-26T03:05:14.141Z,0.00
2019-05-26T03:06:14.095Z,0.00
2019-05-26T03:07:14.083Z,0.00
2019-05-26T03:08:14.013Z,0.00
2019-05-26T03:09:22.908Z,0.00
2019-05-26T03:10:13.944Z,0.00
2019-05-26T03:11:13.916Z,0.00
2019-05-26T03:12:13.897Z,0.00
2019-05-26T03:13:13.852Z,0.00
2019-05-26T03:14:13.808Z,0.00
2019-05-26T03:15:13.842Z,0.00
2019-05-26T03:16:13.779Z,0.00
2019-05-26T03:17:13.743Z,0.00
2019-05-26T03:18:13.729Z,0.00
2019-05-26T03:19:13.682Z,0.00
2019-05-26T03:20:13.627Z,0.00
2019-05-26T03:21:13.593Z,0.00
2019-05-26T03:22:13.549Z,0.00
2019-05-26T03:23:13.519Z,0.00
2019-05-26T03:24:13.483Z,0.00
2019-05-26T03:25:13.490Z,0.00
2019-05-26T03:26:13.429Z,0.00
2019-05-26T03:27:13.413Z,0.00
2019-05-26T03:28:13.385Z,0.00
2019-05-26T03:29:13.372Z,0.00
2019-05-26T03:30:13.288Z,0.00
2019-05-26T03:31:13.280Z,0.00
2019-05-26T03:32:13.262Z,0.00
2019-05-26T03:33:13.197Z,0.00
2019-05-26T03:34:13.153Z,0.00
2019-05-26T03:35:13.150Z,0.00
2019-05-26T03:36:13.103Z,0.00
2019-05-26T03:37:13.088Z,0.00
2019-05-26T03:38:13.021Z,0.00
2019-05-26T03:39:12.988Z,0.00
2019-05-26T03:40:12.990Z,0.00
2019-05-26T03:41:12.933Z,0.00
2019-05-26T03:42:12.896Z,0.00
2019-05-26T03:43:12.910Z,0.00
2019-05-26T03:44:12.850Z,0.00
2019-05-26T03:45:12.819Z,0.00
2019-05-26T03:46:12.823Z,0.00
2019-05-26T03:47:16.607Z,0.00
2019-05-26T03:48:12.721Z,0.00
2019-05-26T03:49:12.708Z,0.00
2019-05-26T03:50:12.635Z,0.00
2019-05-26T03:51:12.641Z,0.00
2019-05-26T03:52:12.564Z,0.00
2019-05-26T03:53:12.534Z,0.00
2019-05-26T03:54:12.505Z,0.00
2019-05-26T03:55:12.464Z,0.00
2019-05-26T03:56:12.434Z,0.00
2019-05-26T03:57:12.405Z,0.00
2019-05-26T03:58:12.378Z,0.00
2019-05-26T03:59:12.335Z,0.00
2019-05-26T04:00:12.324Z,0.00
2019-05-26T04:01:12.270Z,0.00
2019-05-26T04:02:12.234Z,0.00
2019-05-26T04:03:12.235Z,0.00
2019-05-26T04:04:12.187Z,0.00
2019-05-26T04:05:12.159Z,0.00
2019-05-26T04:06:12.106Z,0.00
2019-05-26T04:07:12.107Z,0.00
2019-05-26T04:08:12.056Z,0.00
2019-05-26T04:09:12.013Z,0.00
2019-05-26T04:10:11.994Z,0.00
2019-05-26T04:11:11.943Z,0.00
2019-05-26T04:12:11.906Z,0.00
2019-05-26T04:13:11.866Z,0.00
2019-05-26T04:14:11.872Z,0.00
2019-05-26T04:15:11.811Z,0.00
2019-05-26T04:16:11.796Z,0.00
2019-05-26T04:17:11.761Z,0.00
2019-05-26T04:18:11.701Z,0.00
2019-05-26T04:19:11.711Z,0.00
2019-05-26T04:20:11.643Z,0.00
2019-05-26T04:21:11.706Z,0.00
2019-05-26T04:22:11.587Z,5.63
2019-05-26T04:23:11.543Z,5.63
2019-05-26T04:24:11.530Z,5.63
2019-05-26T04:25:11.462Z,5.63
2019-05-26T04:26:11.446Z,5.63
2019-05-26T04:27:11.413Z,5.63
2019-05-26T04:28:11.417Z,5.63
2019-05-26T04:29:11.348Z,5.63
2019-05-26T04:30:11.319Z,5.63
2019-05-26T04:31:11.278Z,5.63
2019-05-26T04:32:11.282Z,5.63
2019-05-26T04:33:11.233Z,5.63
2019-05-26T04:34:11.203Z,5.63
2019-05-26T04:35:11.147Z,5.63
2019-05-26T04:36:11.121Z,5.63
2019-05-26T04:37:11.109Z,5.63
2019-05-26T04:38:11.093Z,5.63
2019-05-26T04:39:11.024Z,5.63
2019-05-26T04:40:25.992Z,5.63
2019-05-26T04:41:10.992Z,5.63
2019-05-26T04:42:10.961Z,5.63
2019-05-26T04:43:14.604Z,5.63
2019-05-26T04:44:10.865Z,5.63
2019-05-26T04:45:10.845Z,5.63
2019-05-26T04:46:10.823Z,5.63
2019-05-26T04:47:10.772Z,5.63
2019-05-26T04:48:10.725Z,5.63
2019-05-26T04:49:10.679Z,5.63
2019-05-26T04:50:10.645Z,5.63
2019-05-26T04:51:10.621Z,5.63
2019-05-26T04:52:10.585Z,5.63
2019-05-26T04:53:10.553Z,5.63
2019-05-26T04:54:10.525Z,5.63
2019-05-26T04:55:10.501Z,5.63
2019-05-26T04:56:10.450Z,5.63
2019-05-26T04:57:10.445Z,5.63
2019-05-26T04:58:10.423Z,5.63
2019-05-26T04:59:10.394Z,5.63
2019-05-26T05:00:10.368Z,5.63
2019-05-26T05:01:10.323Z,5.63
2019-05-26T05:02:10.256Z,5.63
2019-05-26T05:03:10.229Z,5.63
2019-05-26T05:04:10.205Z,5.63
2019-05-26T05:05:10.201Z,5.63
2019-05-26T05:06:10.154Z,5.63
2019-05-26T05:07:10.091Z,5.63
2019-05-26T05:08:10.089Z,5.63
2019-05-26T05:09:10.035Z,5.63
2019-05-26T05:10:10.006Z,5.63
2019-05-26T05:11:09.954Z,5.63
2019-05-26T05:12:09.928Z,5.63
2019-05-26T05:13:09.913Z,5.63
2019-05-26T05:14:09.870Z,5.63
2019-05-26T05:15:09.840Z,5.63
2019-05-26T05:16:09.812Z,5.63
2019-05-26T05:17:09.768Z,5.63
2019-05-26T05:18:09.768Z,5.63
2019-05-26T05:19:09.702Z,5.63
2019-05-26T05:20:09.669Z,5.63
2019-05-26T05:21:09.636Z,5.63
2019-05-26T05:22:09.600Z,5.63
2019-05-26T05:23:09.579Z,11.25
2019-05-26T05:24:09.543Z,11.25
2019-05-26T05:25:14.679Z,11.25
2019-05-26T05:26:09.476Z,11.25
2019-05-26T05:27:09.441Z,11.25
2019-05-26T05:28:09.424Z,11.25
2019-05-26T05:29:09.377Z,11.25
2019-05-26T05:30:09.344Z,11.25
2019-05-26T05:31:09.325Z,11.25
2019-05-26T05:32:09.285Z,11.25
2019-05-26T05:33:09.240Z,11.25
2019-05-26T05:34:09.217Z,11.25
2019-05-26T05:35:09.192Z,11.25
2019-05-26T05:36:09.167Z,11.25
2019-05-26T05:37:09.121Z,11.25
2019-05-26T05:38:09.093Z,11.25
2019-05-26T05:39:09.066Z,11.25
2019-05-26T05:40:09.021Z,11.25
2019-05-26T05:41:08.989Z,11.25
2019-05-26T05:42:08.946Z,11.25
2019-05-26T05:43:08.925Z,11.25
2019-05-26T05:44:08.920Z,11.25
2019-05-26T05:45:08.865Z,11.25
2019-05-26T05:46:08.826Z,11.25
2019-05-26T05:47:08.822Z,11.25
2019-05-26T05:48:08.809Z,11.25
2019-05-26T05:49:08.725Z,11.25
2019-05-26T05:50:08.704Z,11.25
2019-05-26T05:51:08.667Z,11.25
2019-05-26T05:52:08.685Z,11.25
2019-05-26T05:53:08.597Z,11.25
2019-05-26T05:54:08.578Z,11.25
2019-05-26T05:55:08.532Z,16.88
2019-05-26T05:56:08.530Z,16.88
2019-05-26T05:57:08.471Z,16.88
2019-05-26T05:58:08.461Z,16.88
2019-05-26T05:59:08.414Z,16.88
2019-05-26T06:00:08.376Z,16.88
2019-05-26T06:01:08.350Z,16.88
2019-05-26T06:02:08.316Z,16.88
2019-05-26T06:03:08.290Z,16.88
2019-05-26T06:04:08.243Z,16.88
2019-05-26T06:05:08.228Z,16.88
2019-05-26T06:06:08.185Z,16.88
2019-05-26T06:07:08.150Z,16.88
2019-05-26T06:08:08.141Z,16.88
2019-05-26T06:09:08.083Z,16.88
2019-05-26T06:10:08.073Z,16.88
2019-05-26T06:11:16.520Z,16.88
2019-05-26T06:12:08.007Z,16.88
2019-05-26T06:13:07.990Z,16.88
2019-05-26T06:14:07.931Z,16.88
2019-05-26T06:15:07.911Z,16.88
2019-05-26T06:16:07.887Z,16.88
2019-05-26T06:17:10.424Z,16.88
2019-05-26T06:18:07.818Z,16.88
2019-05-26T06:19:07.776Z,16.88
2019-05-26T06:20:07.744Z,16.88
2019-05-26T06:21:07.719Z,16.88
2019-05-26T06:22:07.683Z,16.88
2019-05-26T06:23:07.642Z,16.88
2019-05-26T06:24:07.635Z,16.88
2019-05-26T06:25:07.641Z,16.88
2019-05-26T06:26:07.572Z,16.88
2019-05-26T06:27:07.524Z,16.88
2019-05-26T06:28:07.506Z,16.88
2019-05-26T06:29:07.479Z,16.88
2019-05-26T06:30:07.441Z,22.50
2019-05-26T06:31:07.443Z,22.50
2019-05-26T06:32:07.578Z,22.50
2019-05-26T06:33:07.340Z,22.50
2019-05-26T06:34:07.322Z,22.50
2019-05-26T06:35:07.302Z,22.50
2019-05-26T06:36:07.236Z,22.50
2019-05-26T06:37:07.208Z,16.88
2019-05-26T06:38:07.180Z,22.50
2019-05-26T06:39:07.159Z,22.50
2019-05-26T06:40:07.141Z,22.50
2019-05-26T06:41:07.103Z,22.50
2019-05-26T06:42:07.064Z,22.50
2019-05-26T06:43:07.024Z,22.50
2019-05-26T06:44:06.985Z,22.50
2019-05-26T06:45:06.967Z,22.50
2019-05-26T06:46:06.939Z,22.50
2019-05-26T06:47:06.900Z,22.50
2019-05-26T06:48:06.873Z,22.50
2019-05-26T06:49:06.845Z,22.50
2019-05-26T06:50:06.838Z,22.50
2019-05-26T06:51:06.791Z,22.50
2019-05-26T06:52:06.749Z,22.50
2019-05-26T06:53:06.758Z,22.50
2019-05-26T06:54:06.721Z,22.50
2019-05-26T06:55:06.681Z,22.50
2019-05-26T06:56:06.638Z,22.50
2019-05-26T06:57:06.592Z,22.50
2019-05-26T06:58:06.577Z,22.50
2019-05-26T06:59:06.540Z,22.50
2019-05-26T07:00:06.499Z,22.50
2019-05-26T07:01:06.475Z,22.50
2019-05-26T07:02:06.432Z,22.50
2019-05-26T07:03:06.413Z,22.50
2019-05-26T07:04:06.407Z,22.50
2019-05-26T07:05:06.345Z,22.50
2019-05-26T07:06:06.312Z,22.50
2019-05-26T07:07:06.303Z,22.50
2019-05-26T07:08:06.257Z,22.50
2019-05-26T07:09:06.221Z,22.50
2019-05-26T07:10:06.194Z,22.50
2019-05-26T07:11:06.163Z,22.50
2019-05-26T07:12:06.165Z,22.50
2019-05-26T07:13:06.127Z,22.50
2019-05-26T07:14:06.075Z,22.50
2019-05-26T07:15:06.087Z,22.50
2019-05-26T07:16:06.016Z,22.50
2019-05-26T07:17:05.989Z,22.50
2019-05-26T07:18:05.962Z,22.50
2019-05-26T07:19:05.929Z,28.13
2019-05-26T07:20:05.927Z,28.13
2019-05-26T07:21:05.869Z,22.50
2019-05-26T07:22:05.842Z,22.50
2019-05-26T07:23:07.259Z,22.50
2019-05-26T07:24:05.797Z,22.50
2019-05-26T07:25:05.784Z,22.50
2019-05-26T07:26:05.704Z,22.50
2019-05-26T07:27:05.685Z,22.50
2019-05-26T07:28:05.671Z,22.50
2019-05-26T07:29:05.623Z,22.50
2019-05-26T07:30:05.594Z,22.50
2019-05-26T07:31:05.566Z,22.50
2019-05-26T07:32:05.529Z,22.50
2019-05-26T07:33:05.538Z,22.50
2019-05-26T07:34:05.491Z,22.50
2019-05-26T07:35:05.452Z,22.50
2019-05-26T07:36:05.415Z,22.50
2019-05-26T07:37:05.390Z,16.88
2019-05-26T07:38:05.398Z,22.50
2019-05-26T07:39:05.357Z,22.50
2019-05-26T07:40:05.317Z,22.50
2019-05-26T07:41:05.280Z,22.50
2019-05-26T07:42:10.709Z,16.88
2019-05-26T07:43:05.214Z,16.88
2019-05-26T07:44:05.209Z,16.88
2019-05-26T07:45:05.144Z,22.50
2019-05-26T07:46:05.120Z,22.50
2019-05-26T07:47:05.117Z,22.50
2019-05-26T07:48:05.072Z,22.50
2019-05-26T07:49:05.064Z,22.50
2019-05-26T07:50:05.017Z,22.50
2019-05-26T07:51:04.999Z,22.50
2019-05-26T07:52:04.957Z,22.50
2019-05-26T07:53:04.914Z,22.50
2019-05-26T07:54:04.887Z,16.88
2019-05-26T07:55:04.869Z,16.88
2019-05-26T07:56:04.833Z,16.88
2019-05-26T07:57:04.795Z,16.88
2019-05-26T07:58:04.763Z,16.88
2019-05-26T07:59:04.740Z,22.50
2019-05-26T08:00:04.699Z,22.50
2019-05-26T08:01:04.715Z,22.50
2019-05-26T08:02:04.654Z,22.50
2019-05-26T08:03:04.619Z,22.50
2019-05-26T08:04:04.626Z,22.50
2019-05-26T08:05:04.594Z,22.50
2019-05-26T08:06:04.560Z,22.50
2019-05-26T08:07:04.511Z,22.50
2019-05-26T08:08:12.572Z,22.50
2019-05-26T08:09:04.471Z,22.50
2019-05-26T08:10:04.455Z,22.50
2019-05-26T08:11:04.379Z,16.88
2019-05-26T08:12:04.360Z,16.88
2019-05-26T08:13:04.347Z,16.88
2019-05-26T08:14:04.302Z,16.88
2019-05-26T08:15:04.279Z,16.88
2019-05-26T08:16:04.260Z,16.88
2019-05-26T08:17:04.207Z,16.88
2019-05-26T08:18:04.192Z,16.88
2019-05-26T08:19:04.279Z,16.88
2019-05-26T08:20:04.135Z,16.88
2019-05-26T08:21:04.097Z,16.88
2019-05-26T08:22:04.071Z,16.88
2019-05-26T08:23:04.035Z,16.88
2019-05-26T08:24:04.006Z,16.88
2019-05-26T08:25:03.977Z,16.88
2019-05-26T08:26:03.951Z,16.88
2019-05-26T08:27:03.932Z,16.88
2019-05-26T08:28:03.886Z,16.88
2019-05-26T08:29:03.862Z,16.88
2019-05-26T08:30:03.845Z,16.88
2019-05-26T08:31:03.810Z,16.88
2019-05-26T08:32:03.779Z,16.88
2019-05-26T08:33:03.747Z,16.88
2019-05-26T08:34:03.717Z,16.88
2019-05-26T08:35:03.707Z,16.88
2019-05-26T08:36:03.683Z,16.88
2019-05-26T08:37:03.641Z,22.50
2019-05-26T08:38:03.661Z,22.50
2019-05-26T08:39:03.575Z,22.50
2019-05-26T08:40:03.565Z,22.50
2019-05-26T08:41:03.520Z,22.50
2019-05-26T08:42:03.495Z,22.50
2019-05-26T08:43:03.464Z,22.50
2019-05-26T08:44:03.436Z,22.50
2019-05-26T08:45:03.409Z,22.50
2019-05-26T08:46:03.379Z,22.50
2019-05-26T08:47:03.353Z,22.50
2019-05-26T08:48:03.338Z,22.50
2019-05-26T08:49:03.311Z,22.50
2019-05-26T08:50:03.258Z,22.50
2019-05-26T08:51:03.238Z,22.50
2019-05-26T08:52:03.202Z,22.50
2019-05-26T08:53:03.184Z,22.50
2019-05-26T08:54:03.149Z,22.50
2019-05-26T08:55:03.122Z,22.50
2019-05-26T08:56:03.087Z,22.50
2019-05-26T08:57:03.099Z,22.50
2019-05-26T08:58:11.737Z,28.13
2019-05-26T09:00:16.487Z,28.13
2019-05-26T09:02:39.747Z,33.75
2019-05-26T09:03:39.699Z,39.38
2019-05-26T09:04:39.673Z,39.38
2019-05-26T09:05:39.654Z,39.38
2019-05-26T09:06:39.603Z,45.00
2019-05-26T09:07:39.589Z,50.63
2019-05-26T09:08:39.564Z,50.63
2019-05-26T09:09:39.587Z,50.63
2019-05-26T09:10:39.499Z,56.25
2019-05-26T09:11:39.498Z,56.25
2019-05-26T09:12:39.439Z,56.25
2019-05-26T09:13:39.402Z,61.88
2019-05-26T09:14:39.409Z,67.50
2019-05-26T09:15:39.397Z,67.50
2019-05-26T09:16:39.323Z,67.50
2019-05-26T09:17:39.295Z,67.50
2019-05-26T09:18:39.279Z,67.50
2019-05-26T09:19:39.229Z,67.50
2019-05-26T09:20:39.208Z,73.13
2019-05-26T09:21:39.183Z,73.13
2019-05-26T09:22:39.149Z,73.13
2019-05-26T09:23:39.186Z,73.13
2019-05-26T09:24:39.143Z,73.13
2019-05-26T09:25:39.060Z,67.50
2019-05-26T09:26:39.099Z,67.50
2019-05-26T09:27:39.043Z,61.88
2019-05-26T09:28:39.021Z,61.88
2019-05-26T09:29:38.998Z,61.88
2019-05-26T09:30:38.940Z,61.88
2019-05-26T09:31:38.946Z,67.50
2019-05-26T09:32:38.907Z,67.50
2019-05-26T09:33:38.874Z,67.50
2019-05-26T09:34:38.826Z,67.50
2019-05-26T09:35:38.795Z,61.88
2019-05-26T09:36:38.871Z,61.88
2019-05-26T09:37:38.743Z,61.88
2019-05-26T09:38:38.725Z,61.88
2019-05-26T09:39:38.717Z,61.88
2019-05-26T09:40:38.669Z,61.88
2019-05-26T09:41:38.665Z,61.88
2019-05-26T09:42:38.610Z,61.88
2019-05-26T09:43:38.586Z,61.88
2019-05-26T09:44:38.567Z,56.25
2019-05-26T09:45:38.560Z,56.25
2019-05-26T09:46:38.513Z,56.25
2019-05-26T09:47:38.484Z,56.25
2019-05-26T09:48:38.475Z,56.25
2019-05-26T09:49:38.428Z,56.25
2019-05-26T09:50:38.422Z,56.25
2019-05-26T09:51:38.402Z,56.25
2019-05-26T09:52:38.341Z,56.25
2019-05-26T09:53:38.328Z,56.25
2019-05-26T09:54:38.291Z,56.25
2019-05-26T09:55:38.268Z,56.25
2019-05-26T09:56:38.250Z,56.25
2019-05-26T09:57:38.243Z,56.25
2019-05-26T09:58:38.198Z,56.25
2019-05-26T09:59:38.151Z,56.25
2019-05-26T10:00:38.135Z,56.25
2019-05-26T10:01:38.115Z,56.25
2019-05-26T10:02:38.078Z,56.25
2019-05-26T10:03:38.062Z,56.25
2019-05-26T10:04:38.022Z,56.25
2019-05-26T10:05:38.002Z,50.63
2019-05-26T10:06:37.969Z,50.63
2019-05-26T10:07:37.937Z,50.63
2019-05-26T10:08:37.957Z,50.63
2019-05-26T10:09:37.892Z,50.63
2019-05-26T10:10:37.863Z,45.00
2019-05-26T10:11:37.834Z,45.00
2019-05-26T10:12:37.809Z,45.00
2019-05-26T10:13:37.788Z,45.00
2019-05-26T10:14:37.771Z,45.00
2019-05-26T10:15:37.727Z,45.00
2019-05-26T10:16:37.708Z,45.00
2019-05-26T10:17:37.672Z,45.00
2019-05-26T10:18:37.664Z,45.00
2019-05-26T10:19:37.619Z,45.00
2019-05-26T10:20:37.592Z,45.00
2019-05-26T10:21:37.563Z,45.00
2019-05-26T10:22:37.572Z,45.00
2019-05-26T10:23:37.527Z,45.00
2019-05-26T10:24:37.518Z,45.00
2019-05-26T10:25:37.464Z,45.00
2019-05-26T10:26:37.427Z,39.38
2019-05-26T10:27:37.398Z,39.38
2019-05-26T10:28:37.374Z,39.38
2019-05-26T10:29:37.353Z,39.38
2019-05-26T10:30:37.347Z,33.75
2019-05-26T10:31:37.317Z,33.75
2019-05-26T10:32:37.271Z,33.75
2019-05-26T10:33:37.303Z,28.13
2019-05-26T10:34:37.237Z,28.13
2019-05-26T10:35:37.192Z,28.13
2019-05-26T10:36:37.189Z,28.13
2019-05-26T10:37:37.163Z,28.13
2019-05-26T10:38:37.109Z,28.13
2019-05-26T10:39:37.115Z,28.13
2019-05-26T10:40:37.051Z,28.13
2019-05-26T10:41:37.123Z,28.13
2019-05-26T10:42:37.008Z,28.13
2019-05-26T10:43:46.743Z,28.13
2019-05-26T10:44:36.953Z,33.75
2019-05-26T10:45:36.930Z,33.75
2019-05-26T10:46:36.889Z,33.75
2019-05-26T10:47:36.905Z,33.75
2019-05-26T10:48:36.845Z,33.75
2019-05-26T10:49:36.806Z,33.75
2019-05-26T10:50:36.781Z,33.75
2019-05-26T10:51:36.759Z,33.75
2019-05-26T10:52:36.729Z,33.75
2019-05-26T10:53:36.721Z,33.75
2019-05-26T10:54:36.709Z,33.75
2019-05-26T10:55:36.645Z,33.75
2019-05-26T10:56:36.627Z,33.75
2019-05-26T10:57:36.621Z,33.75
2019-05-26T10:58:36.561Z,33.75
2019-05-26T10:59:36.545Z,33.75
2019-05-26T11:00:36.520Z,33.75
2019-05-26T11:01:36.487Z,39.38
2019-05-26T11:02:36.459Z,39.38
2019-05-26T11:03:36.444Z,39.38
2019-05-26T11:04:36.402Z,39.38
2019-05-26T11:05:36.402Z,39.38
2019-05-26T11:06:36.367Z,39.38
2019-05-26T11:07:36.337Z,39.38
2019-05-26T11:08:36.304Z,39.38
2019-05-26T11:09:36.277Z,39.38
2019-05-26T11:10:36.252Z,39.38
2019-05-26T11:11:36.225Z,39.38
2019-05-26T11:12:36.189Z,45.00
2019-05-26T11:13:36.169Z,45.00
2019-05-26T11:14:36.159Z,45.00
2019-05-26T11:15:36.117Z,45.00
2019-05-26T11:16:36.080Z,50.63
2019-05-26T11:17:36.058Z,50.63
2019-05-26T11:18:36.033Z,50.63
2019-05-26T11:19:36.017Z,50.63
2019-05-26T11:20:35.997Z,56.25
2019-05-26T11:21:35.959Z,56.25
2019-05-26T11:22:35.941Z,56.25
2019-05-26T11:23:35.900Z,56.25
2019-05-26T11:24:35.877Z,56.25
2019-05-26T11:25:35.836Z,56.25
2019-05-26T11:26:35.813Z,56.25
2019-05-26T11:27:35.791Z,56.25
2019-05-26T11:28:35.765Z,56.25
2019-05-26T11:29:35.738Z,56.25
2019-05-26T11:30:35.727Z,56.25
2019-05-26T11:31:35.676Z,56.25
2019-05-26T11:32:35.649Z,61.88
2019-05-26T11:33:35.640Z,61.88
2019-05-26T11:34:35.601Z,61.88
2019-05-26T11:35:35.564Z,61.88
2019-05-26T11:36:35.542Z,61.88
2019-05-26T11:37:35.525Z,61.88
2019-05-26T11:38:35.519Z,56.25
2019-05-26T11:39:35.479Z,56.25
2019-05-26T11:40:35.457Z,56.25
2019-05-26T11:41:35.399Z,56.25
2019-05-26T11:42:35.381Z,56.25
2019-05-26T11:43:35.367Z,56.25
2019-05-26T11:44:35.351Z,56.25
2019-05-26T11:45:35.310Z,56.25
2019-05-26T11:46:35.278Z,56.25
2019-05-26T11:47:35.263Z,56.25
2019-05-26T11:48:38.476Z,56.25
2019-05-26T11:49:35.213Z,56.25
2019-05-26T11:50:35.170Z,56.25
2019-05-26T11:51:35.138Z,56.25
2019-05-26T11:52:35.125Z,56.25
2019-05-26T11:53:35.094Z,56.25
2019-05-26T11:54:35.065Z,56.25
2019-05-26T11:55:35.063Z,56.25
2019-05-26T11:56:35.020Z,56.25
2019-05-26T11:57:36.849Z,56.25
2019-05-26T11:58:34.979Z,56.25
2019-05-26T11:59:34.950Z,56.25
2019-05-26T12:00:34.912Z,56.25
2019-05-26T12:01:34.886Z,56.25
2019-05-26T12:02:34.853Z,56.25
2019-05-26T12:03:34.820Z,56.25
2019-05-26T12:04:34.831Z,56.25
2019-05-26T12:05:34.809Z,56.25
2019-05-26T12:06:34.744Z,56.25
2019-05-26T12:07:34.729Z,56.25
2019-05-26T12:08:34.722Z,56.25
2019-05-26T12:09:34.674Z,56.25
2019-05-26T12:10:34.676Z,56.25
2019-05-26T12:11:34.629Z,56.25
2019-05-26T12:12:34.636Z,56.25
2019-05-26T12:13:36.669Z,56.25
2019-05-26T12:14:35.640Z,56.25
2019-05-26T12:15:34.546Z,56.25
2019-05-26T12:16:34.491Z,56.25
2019-05-26T12:17:34.453Z,56.25
2019-05-26T12:18:34.454Z,56.25
2019-05-26T12:19:34.448Z,61.88
2019-05-26T12:20:34.403Z,61.88
2019-05-26T12:21:34.355Z,61.88
2019-05-26T12:22:34.325Z,61.88
2019-05-26T12:23:34.295Z,61.88
2019-05-26T12:24:34.285Z,61.88
2019-05-26T12:25:34.771Z,61.88
2019-05-26T12:26:34.220Z,61.88
2019-05-26T12:27:34.202Z,61.88
2019-05-26T12:28:34.175Z,61.88
2019-05-26T12:29:34.162Z,67.50
2019-05-26T12:30:34.125Z,67.50
2019-05-26T12:31:34.104Z,67.50
2019-05-26T12:32:34.095Z,67.50
2019-05-26T12:33:34.045Z,67.50
2019-05-26T12:34:34.043Z,67.50
2019-05-26T12:35:33.992Z,67.50
2019-05-26T12:36:33.961Z,67.50
2019-05-26T12:37:33.935Z,67.50
2019-05-26T12:38:33.941Z,67.50
2019-05-26T12:39:33.882Z,73.13
2019-05-26T12:40:33.861Z,67.50
2019-05-26T12:41:37.044Z,67.50
2019-05-26T12:42:33.855Z,73.13
2019-05-26T12:43:33.782Z,73.13
2019-05-26T12:44:46.738Z,73.13
2019-05-26T12:45:33.726Z,73.13
2019-05-26T12:46:33.703Z,67.50
2019-05-26T12:47:33.687Z,67.50
2019-05-26T12:48:33.666Z,67.50
2019-05-26T12:49:33.618Z,67.50
2019-05-26T12:50:33.603Z,73.13
2019-05-26T12:51:33.577Z,67.50
2019-05-26T12:52:34.222Z,67.50
2019-05-26T12:53:33.539Z,61.88
2019-05-26T12:54:33.508Z,61.88
2019-05-26T12:55:33.468Z,61.88
2019-05-26T12:56:33.438Z,56.25
2019-05-26T12:57:33.422Z,56.25
2019-05-26T12:58:33.392Z,56.25
2019-05-26T12:59:33.358Z,56.25
2019-05-26T13:00:47.672Z,56.25
2019-05-26T13:01:33.313Z,61.88
2019-05-26T13:02:33.304Z,61.88
2019-05-26T13:03:33.263Z,61.88
2019-05-26T13:04:33.237Z,67.50
2019-05-26T13:05:33.221Z,67.50
2019-05-26T13:06:33.198Z,67.50
2019-05-26T13:07:33.157Z,67.50